createdAt,value
2022-10-02T00:00:08.011Z,2.87
2022-10-02T00:02:54.076Z,3.93
2022-10-02T00:05:29.087Z,1.97
2022-10-02T00:07:59.008Z,2.30
2022-10-02T00:10:39.639Z,2.10
2022-10-02T00:13:11.208Z,3.60
2022-10-02T00:15:42.109Z,2.50
2022-10-02T00:18:16.106Z,2.90
2022-10-02T00:21:06.375Z,2.93
2022-10-02T00:23:41.691Z,2.00
2022-10-02T00:26:28.504Z,2.80
2022-10-02T00:29:14.035Z,1.97
2022-10-02T00:31:58.899Z,2.27
2022-10-02T00:34:30.746Z,2.80
2022-10-02T00:37:22.315Z,2.07
2022-10-02T00:40:10.775Z,2.90
2022-10-02T00:42:56.051Z,3.10
2022-10-02T00:45:34.812Z,1.97
2022-10-02T00:48:26.614Z,4.53
2022-10-02T00:51:01.102Z,2.37
2022-10-02T00:53:44.108Z,2.40
2022-10-02T00:56:33.089Z,2.63
2022-10-02T00:59:30.038Z,2.30
2022-10-02T01:02:09.590Z,2.27
2022-10-02T01:04:38.809Z,3.97
2022-10-02T01:07:08.794Z,3.23
2022-10-02T01:09:37.213Z,3.00
2022-10-02T01:12:04.132Z,4.00
2022-10-02T01:14:35.278Z,2.90
2022-10-02T01:17:02.924Z,4.27
2022-10-02T01:19:41.024Z,3.17
2022-10-02T01:22:25.393Z,3.83
2022-10-02T01:24:56.832Z,3.13
2022-10-02T01:27:25.477Z,3.13
2022-10-02T01:30:00.125Z,3.33
2022-10-02T01:32:29.272Z,5.33
2022-10-02T01:34:57.125Z,2.53
2022-10-02T01:37:29.260Z,3.63
2022-10-02T01:40:05.319Z,4.53
2022-10-02T01:42:32.444Z,2.77
2022-10-02T01:44:59.248Z,2.93
2022-10-02T01:47:49.344Z,3.37
2022-10-02T01:50:38.736Z,2.93
2022-10-02T01:53:16.212Z,3.67
2022-10-02T01:55:55.305Z,5.63
2022-10-02T01:58:32.548Z,3.47
2022-10-02T02:01:11.377Z,4.37
2022-10-02T02:04:03.193Z,3.60
2022-10-02T02:06:48.589Z,5.30
2022-10-02T02:09:24.194Z,5.43
2022-10-02T02:12:02.613Z,3.07
2022-10-02T02:14:37.390Z,2.63
2022-10-02T02:17:14.670Z,2.87
2022-10-02T02:19:50.745Z,4.73
2022-10-02T02:22:30.946Z,3.33
2022-10-02T02:25:07.984Z,3.20
2022-10-02T02:27:40.728Z,4.27
2022-10-02T02:30:11.989Z,5.13
2022-10-02T02:33:02.386Z,3.27
2022-10-02T02:35:35.860Z,3.87
2022-10-02T02:38:11.542Z,2.87
2022-10-02T02:40:42.732Z,4.47
2022-10-02T02:43:16.647Z,2.50
2022-10-02T02:45:55.302Z,4.03
2022-10-02T02:48:30.198Z,3.13
2022-10-02T02:51:04.721Z,3.03
2022-10-02T02:53:47.156Z,3.30
2022-10-02T02:56:17.410Z,2.17
2022-10-02T02:59:02.250Z,3.00
2022-10-02T03:01:29.138Z,2.63
2022-10-02T03:03:56.104Z,2.40
2022-10-02T03:06:39.926Z,2.60
2022-10-02T03:09:12.441Z,2.07
2022-10-02T03:11:46.300Z,3.07
2022-10-02T03:14:31.974Z,2.50
2022-10-02T03:17:07.602Z,2.33
2022-10-02T03:19:47.976Z,2.37
2022-10-02T03:22:43.754Z,2.40
2022-10-02T03:25:15.654Z,2.70
2022-10-02T03:28:10.573Z,4.40
2022-10-02T03:30:39.946Z,3.87
2022-10-02T03:33:09.303Z,2.63
2022-10-02T03:35:37.703Z,2.30
2022-10-02T03:38:07.503Z,4.30
2022-10-02T03:40:34.669Z,5.10
2022-10-02T03:43:01.864Z,3.70
2022-10-02T03:45:50.087Z,6.07
2022-10-02T03:48:17.704Z,6.17
2022-10-02T03:50:45.282Z,6.07
2022-10-02T03:53:21.528Z,5.67
2022-10-02T03:56:04.427Z,5.43
2022-10-02T03:58:32.880Z,5.13
2022-10-02T04:01:17.402Z,7.90
2022-10-02T04:03:50.880Z,7.67
2022-10-02T04:06:28.401Z,5.87
2022-10-02T04:09:09.413Z,6.77
2022-10-02T04:11:51.809Z,5.07
2022-10-02T04:14:30.276Z,5.17
2022-10-02T04:17:11.451Z,4.90
2022-10-02T04:19:49.016Z,6.93
2022-10-02T04:22:34.571Z,5.27
2022-10-02T04:25:15.909Z,5.90
2022-10-02T04:27:50.499Z,7.90
2022-10-02T04:30:20.059Z,5.97
2022-10-02T04:32:47.573Z,4.00
2022-10-02T04:35:22.956Z,6.13
2022-10-02T04:38:14.201Z,7.03
2022-10-02T04:41:05.470Z,7.33
2022-10-02T04:44:00.548Z,5.27
2022-10-02T04:46:49.054Z,6.07
2022-10-02T04:49:20.540Z,8.20
2022-10-02T04:52:23.586Z,6.67
2022-10-02T04:54:50.403Z,4.70
2022-10-02T04:57:26.091Z,5.40
2022-10-02T05:00:07.877Z,5.30
2022-10-02T05:02:47.800Z,10.13
2022-10-02T05:05:40.437Z,4.73
2022-10-02T05:08:30.764Z,3.30
2022-10-02T05:11:22.111Z,3.27
2022-10-02T05:13:54.826Z,2.70
2022-10-02T05:16:58.038Z,2.83
2022-10-02T05:19:46.536Z,2.33
2022-10-02T05:22:37.960Z,2.30
2022-10-02T05:25:42.532Z,3.63
2022-10-02T05:28:34.188Z,2.57
2022-10-02T05:31:31.449Z,2.90
2022-10-02T05:34:24.354Z,2.90
2022-10-02T05:37:00.324Z,3.00
2022-10-02T05:40:00.272Z,3.30
2022-10-02T05:42:38.194Z,2.80
2022-10-02T05:45:30.992Z,2.30
2022-10-02T05:48:19.885Z,2.20
2022-10-02T05:50:52.999Z,2.13
2022-10-02T05:53:30.410Z,2.53
2022-10-02T05:56:16.121Z,3.00
2022-10-02T05:59:01.079Z,2.03
2022-10-02T06:01:33.099Z,2.17
2022-10-02T06:04:16.747Z,2.07
2022-10-02T06:06:51.662Z,1.90
2022-10-02T06:09:33.263Z,2.40
2022-10-02T06:12:07.425Z,1.77
2022-10-02T06:14:41.946Z,1.67
2022-10-02T06:17:18.020Z,1.77
2022-10-02T06:20:16.417Z,1.70
2022-10-02T06:23:00.782Z,2.33
2022-10-02T06:25:39.552Z,2.53
2022-10-02T06:28:21.305Z,4.83
2022-10-02T06:30:56.905Z,1.80
2022-10-02T06:33:26.209Z,2.80
2022-10-02T06:36:16.643Z,2.23
2022-10-02T06:39:14.269Z,4.27
2022-10-02T06:41:56.682Z,1.60
2022-10-02T06:44:38.632Z,2.23
2022-10-02T06:47:08.345Z,2.00
2022-10-02T06:49:41.514Z,1.90
2022-10-02T06:52:34.453Z,2.10
2022-10-02T06:55:32.157Z,1.50
2022-10-02T06:58:36.805Z,1.73
2022-10-02T07:01:31.403Z,2.47
2022-10-02T07:04:18.418Z,2.30
2022-10-02T07:06:57.769Z,3.27
2022-10-02T07:09:43.975Z,2.40
2022-10-02T07:12:13.575Z,1.60
2022-10-02T07:15:04.612Z,7.30
2022-10-02T07:17:31.358Z,4.83
2022-10-02T07:20:29.733Z,7.53
2022-10-02T07:22:59.533Z,4.03
2022-10-02T07:25:26.259Z,2.07
2022-10-02T07:28:14.616Z,2.60
2022-10-02T07:31:07.521Z,1.63
2022-10-02T07:33:53.327Z,2.60
2022-10-02T07:36:50.888Z,1.43
2022-10-02T07:39:31.437Z,1.20
2022-10-02T07:42:32.810Z,3.17
2022-10-02T07:45:06.728Z,1.47
2022-10-02T07:48:05.469Z,1.30
2022-10-02T07:50:55.219Z,1.50
2022-10-02T07:53:40.471Z,1.50
2022-10-02T07:56:11.771Z,1.80
2022-10-02T07:58:43.774Z,2.53
2022-10-02T08:01:35.667Z,1.43
2022-10-02T08:04:17.332Z,1.87
2022-10-02T08:06:47.063Z,1.73
2022-10-02T08:09:23.347Z,1.67
2022-10-02T08:11:59.331Z,1.87
2022-10-02T08:14:42.234Z,1.30
2022-10-02T08:17:35.985Z,2.77
2022-10-02T08:20:33.973Z,1.37
2022-10-02T08:23:13.511Z,1.00
2022-10-02T08:26:01.128Z,1.70
2022-10-02T08:28:37.681Z,1.03
2022-10-02T08:31:11.031Z,1.53
2022-10-02T08:33:39.050Z,0.90
2022-10-02T08:36:20.933Z,0.80
2022-10-02T08:39:30.673Z,1.30
2022-10-02T08:42:15.602Z,1.70
2022-10-02T08:45:02.323Z,1.00
2022-10-02T08:47:37.940Z,1.67
2022-10-02T08:50:31.808Z,1.27
2022-10-02T08:53:19.772Z,1.40
2022-10-02T08:56:17.733Z,1.53
2022-10-02T08:58:57.867Z,1.80
2022-10-02T09:01:49.485Z,2.70
2022-10-02T09:04:41.070Z,2.70
2022-10-02T09:07:47.093Z,1.47
2022-10-02T09:10:45.835Z,1.63
2022-10-02T09:13:12.696Z,2.40
2022-10-02T09:16:11.555Z,3.73
2022-10-02T09:19:13.737Z,1.50
2022-10-02T09:22:19.322Z,2.20
2022-10-02T09:25:01.895Z,2.80
2022-10-02T09:27:59.236Z,5.47
2022-10-02T09:30:34.993Z,3.20
2022-10-02T09:33:20.557Z,1.20
2022-10-02T09:36:35.061Z,1.07
2022-10-02T09:39:09.721Z,2.40
2022-10-02T09:42:00.795Z,1.13
2022-10-02T09:45:18.173Z,2.27
2022-10-02T09:48:34.657Z,1.63
2022-10-02T09:51:01.470Z,4.10
2022-10-02T09:54:13.548Z,2.43
2022-10-02T09:56:53.329Z,2.63
2022-10-02T09:59:38.246Z,1.73
2022-10-02T10:02:25.874Z,1.33
2022-10-02T10:05:13.568Z,2.63
2022-10-02T10:08:04.438Z,0.87
2022-10-02T10:11:00.589Z,1.00
2022-10-02T10:13:45.886Z,0.80
2022-10-02T10:16:31.522Z,1.10
2022-10-02T10:19:23.729Z,1.23
2022-10-02T10:22:12.650Z,1.23
2022-10-02T10:24:53.423Z,1.13
2022-10-02T10:27:47.306Z,1.03
2022-10-02T10:30:17.222Z,1.47
2022-10-02T10:33:20.608Z,0.90
2022-10-02T10:36:36.638Z,0.90
2022-10-02T10:39:17.602Z,1.40
2022-10-02T10:42:25.013Z,1.27
2022-10-02T10:45:00.381Z,1.20
2022-10-02T10:47:51.876Z,0.90
2022-10-02T10:50:42.355Z,1.10
2022-10-02T10:53:17.765Z,1.43
2022-10-02T10:56:10.022Z,1.17
2022-10-02T10:59:29.999Z,1.33
2022-10-02T11:02:15.055Z,0.80
2022-10-02T11:05:19.429Z,0.80
2022-10-02T11:08:12.754Z,1.17
2022-10-02T11:10:39.480Z,1.30
2022-10-02T11:13:33.823Z,1.10
2022-10-02T11:16:14.805Z,0.97
2022-10-02T11:18:53.251Z,1.10
2022-10-02T11:21:44.490Z,1.20
2022-10-02T11:24:38.483Z,0.97
2022-10-02T11:27:24.292Z,1.13
2022-10-02T11:30:23.261Z,1.23
2022-10-02T11:33:17.372Z,0.83
2022-10-02T11:35:53.025Z,0.90
2022-10-02T11:38:40.239Z,1.23
2022-10-02T11:41:31.069Z,2.10
2022-10-02T11:44:16.952Z,1.30
2022-10-02T11:46:52.174Z,2.17
2022-10-02T11:49:51.809Z,1.67
2022-10-02T11:52:45.932Z,1.80
2022-10-02T11:55:41.041Z,1.30
2022-10-02T11:58:49.609Z,0.90
2022-10-02T12:01:38.503Z,1.40
2022-10-02T12:04:36.862Z,1.97
2022-10-02T12:07:34.027Z,2.63
2022-10-02T12:10:36.430Z,1.73
2022-10-02T12:13:06.092Z,2.27
2022-10-02T12:15:58.311Z,2.90
2022-10-02T12:18:49.370Z,1.20
2022-10-02T12:21:50.770Z,1.40
2022-10-02T12:25:05.039Z,1.27
2022-10-02T12:27:42.725Z,1.67
2022-10-02T12:30:48.421Z,0.90
2022-10-02T12:33:28.636Z,1.03
2022-10-02T12:36:00.854Z,1.57
2022-10-02T12:38:39.690Z,1.10
2022-10-02T12:41:34.421Z,1.23
2022-10-02T12:44:01.535Z,1.33
2022-10-02T12:46:40.311Z,0.80
2022-10-02T12:49:16.459Z,1.07
2022-10-02T12:52:28.501Z,2.17
2022-10-02T12:55:07.419Z,1.10
2022-10-02T12:57:56.025Z,0.83
2022-10-02T13:00:29.202Z,1.10
2022-10-02T13:03:01.303Z,1.70
2022-10-02T13:06:01.882Z,0.90
2022-10-02T13:08:36.585Z,0.90
2022-10-02T13:11:27.245Z,0.97
2022-10-02T13:14:12.879Z,1.77
2022-10-02T13:16:48.990Z,1.13
2022-10-02T13:19:34.114Z,0.90
2022-10-02T13:22:39.335Z,1.90
2022-10-02T13:25:33.110Z,0.97
2022-10-02T13:28:07.444Z,1.20
2022-10-02T13:31:02.564Z,1.00
2022-10-02T13:34:01.762Z,0.90
2022-10-02T13:36:51.748Z,0.90
2022-10-02T13:39:50.176Z,1.13
2022-10-02T13:42:37.133Z,0.80
2022-10-02T13:45:29.505Z,1.60
2022-10-02T13:48:13.143Z,1.70
2022-10-02T13:50:50.619Z,1.27
2022-10-02T13:53:51.555Z,4.13
2022-10-02T13:57:09.945Z,1.60
2022-10-02T13:59:42.982Z,1.00
2022-10-02T14:02:15.110Z,0.93
2022-10-02T14:05:32.079Z,1.03
2022-10-02T14:08:24.792Z,1.43
2022-10-02T14:11:10.030Z,0.80
2022-10-02T14:14:03.675Z,0.80
2022-10-02T14:16:42.739Z,1.20
2022-10-02T14:19:35.555Z,1.23
2022-10-02T14:22:30.393Z,1.27
2022-10-02T14:25:20.381Z,0.70
2022-10-02T14:28:12.570Z,1.50
2022-10-02T14:31:15.089Z,1.13
2022-10-02T14:33:55.967Z,0.80
2022-10-02T14:36:50.965Z,1.73
2022-10-02T14:39:36.466Z,1.40
2022-10-02T14:42:25.915Z,1.27
2022-10-02T14:44:57.003Z,1.50
2022-10-02T14:47:48.280Z,1.57
2022-10-02T14:50:27.048Z,1.57
2022-10-02T14:53:21.505Z,0.97
2022-10-02T14:56:07.333Z,1.20
2022-10-02T14:58:59.136Z,2.87
2022-10-02T15:01:26.936Z,1.17
2022-10-02T15:04:13.595Z,1.00
2022-10-02T15:06:59.003Z,0.77
2022-10-02T15:09:25.816Z,1.63
2022-10-02T15:12:05.871Z,1.27
2022-10-02T15:14:46.670Z,1.63
2022-10-02T15:17:48.632Z,1.10
2022-10-02T15:20:34.734Z,1.80
2022-10-02T15:23:04.044Z,1.10
2022-10-02T15:25:43.204Z,1.57
2022-10-02T15:28:44.842Z,1.67
2022-10-02T15:31:31.499Z,1.63
2022-10-02T15:34:23.260Z,1.20
2022-10-02T15:37:26.577Z,1.10
2022-10-02T15:40:34.020Z,0.93
2022-10-02T15:43:31.163Z,0.80
2022-10-02T15:46:13.015Z,1.53
2022-10-02T15:48:52.388Z,1.47
2022-10-02T15:51:31.475Z,0.93
2022-10-02T15:54:16.395Z,1.90
2022-10-02T15:57:26.256Z,3.07
2022-10-02T15:59:59.234Z,1.50
2022-10-02T16:02:54.353Z,1.03
2022-10-02T16:05:45.171Z,1.40
2022-10-02T16:08:33.972Z,1.00
2022-10-02T16:11:00.772Z,5.77
2022-10-02T16:13:43.490Z,4.77
2022-10-02T16:16:33.358Z,4.87
2022-10-02T16:19:18.823Z,11.83
2022-10-02T16:22:00.736Z,4.57
2022-10-02T16:24:56.007Z,4.60
2022-10-02T16:27:34.870Z,3.80
2022-10-02T16:30:16.517Z,8.53
2022-10-02T16:32:59.270Z,12.40
2022-10-02T16:35:26.176Z,9.00
2022-10-02T16:38:00.721Z,14.27
2022-10-02T16:40:43.895Z,13.17
2022-10-02T16:43:19.571Z,5.83
2022-10-02T16:46:04.986Z,9.37
2022-10-02T16:48:54.551Z,5.97
2022-10-02T16:51:50.077Z,1.70
2022-10-02T16:54:25.585Z,2.90
2022-10-02T16:57:22.325Z,2.13
2022-10-02T17:00:02.228Z,3.07
2022-10-02T17:02:37.893Z,3.40
2022-10-02T17:05:26.990Z,1.47
2022-10-02T17:07:53.705Z,3.63
2022-10-02T17:10:37.450Z,2.00
2022-10-02T17:13:13.544Z,3.17
2022-10-02T17:15:56.616Z,4.70
2022-10-02T17:18:58.194Z,2.20
2022-10-02T17:21:39.172Z,1.97
2022-10-02T17:24:36.592Z,1.40
2022-10-02T17:27:18.008Z,2.17
2022-10-02T17:30:08.306Z,1.93
2022-10-02T17:32:37.935Z,3.33
2022-10-02T17:35:35.550Z,2.10
2022-10-02T17:38:05.230Z,4.73
2022-10-02T17:40:50.904Z,1.60
2022-10-02T17:43:40.111Z,2.53
2022-10-02T17:46:46.409Z,4.53
2022-10-02T17:49:25.351Z,1.73
2022-10-02T17:52:40.117Z,2.03
2022-10-02T17:55:31.818Z,1.27
2022-10-02T17:58:40.054Z,1.57
2022-10-02T18:01:09.732Z,1.43
2022-10-02T18:03:59.922Z,1.43
2022-10-02T18:06:57.156Z,2.63
2022-10-02T18:09:26.661Z,2.77
2022-10-02T18:12:13.250Z,2.37
2022-10-02T18:14:58.044Z,2.57
2022-10-02T18:18:08.303Z,2.33
2022-10-02T18:20:57.440Z,1.43
2022-10-02T18:23:49.108Z,3.13
2022-10-02T18:26:54.337Z,1.20
2022-10-02T18:29:24.004Z,3.53
2022-10-02T18:32:06.995Z,2.47
2022-10-02T18:34:43.564Z,1.53
2022-10-02T18:37:35.761Z,3.97
2022-10-02T18:40:23.923Z,1.87
2022-10-02T18:43:22.044Z,2.07
2022-10-02T18:46:12.140Z,2.20
2022-10-02T18:49:12.360Z,3.90
2022-10-02T18:51:45.286Z,1.77
2022-10-02T18:54:28.939Z,1.67
2022-10-02T18:57:09.344Z,1.27
2022-10-02T18:59:48.199Z,2.13
2022-10-02T19:02:45.434Z,2.37
2022-10-02T19:05:12.407Z,3.03
2022-10-02T19:07:50.248Z,1.57
2022-10-02T19:10:40.170Z,1.83
2022-10-02T19:13:17.521Z,3.47
2022-10-02T19:15:46.485Z,1.43
2022-10-02T19:18:23.509Z,2.23
2022-10-02T19:20:58.430Z,1.23
2022-10-02T19:23:30.181Z,1.20
2022-10-02T19:26:02.968Z,2.60
2022-10-02T19:28:31.689Z,2.33
2022-10-02T19:31:05.389Z,1.33
2022-10-02T19:33:46.975Z,2.63
2022-10-02T19:36:23.989Z,2.20
2022-10-02T19:39:04.798Z,1.07
2022-10-02T19:41:35.468Z,2.10
2022-10-02T19:44:07.021Z,2.40
2022-10-02T19:46:53.305Z,1.17
2022-10-02T19:49:34.172Z,1.13
2022-10-02T19:52:01.294Z,1.53
2022-10-02T19:54:36.686Z,1.97
2022-10-02T19:57:11.962Z,1.70
2022-10-02T19:59:44.288Z,1.03
2022-10-02T20:02:34.694Z,3.13
2022-10-02T20:05:06.314Z,0.87
2022-10-02T20:07:38.147Z,1.13
2022-10-02T20:10:28.295Z,2.37
2022-10-02T20:13:02.577Z,3.10
2022-10-02T20:16:04.554Z,3.57
2022-10-02T20:18:31.521Z,2.63
2022-10-02T20:21:17.848Z,1.83
2022-10-02T20:23:50.541Z,3.10
2022-10-02T20:26:22.023Z,2.30
2022-10-02T20:28:55.212Z,8.00
2022-10-02T20:31:33.464Z,1.90
2022-10-02T20:34:05.245Z,2.07
2022-10-02T20:36:52.947Z,5.73
2022-10-02T20:39:26.300Z,0.80
2022-10-02T20:42:22.935Z,2.50
2022-10-02T20:44:50.743Z,1.47
2022-10-02T20:47:41.801Z,0.73
2022-10-02T20:50:33.138Z,1.83
2022-10-02T20:53:27.921Z,1.47
2022-10-02T20:56:25.376Z,1.40
2022-10-02T20:59:04.736Z,0.67
2022-10-02T21:01:59.165Z,0.50
2022-10-02T21:04:35.159Z,1.17
2022-10-02T21:07:24.594Z,0.97
2022-10-02T21:09:51.379Z,2.37
2022-10-02T21:12:18.165Z,1.90
2022-10-02T21:14:56.976Z,1.27
2022-10-02T21:17:52.667Z,1.57
2022-10-02T21:20:51.565Z,0.90
2022-10-02T21:23:55.849Z,0.70
2022-10-02T21:26:40.341Z,0.30
2022-10-02T21:29:16.399Z,1.20
2022-10-02T21:32:04.517Z,0.60
2022-10-02T21:34:41.068Z,0.97
2022-10-02T21:37:23.175Z,1.77
2022-10-02T21:39:55.710Z,0.53
2022-10-02T21:42:37.583Z,0.80
2022-10-02T21:45:38.271Z,1.60
2022-10-02T21:48:43.751Z,0.67
2022-10-02T21:51:31.639Z,1.07
2022-10-02T21:54:23.607Z,0.90
2022-10-02T21:57:10.961Z,0.73
2022-10-02T22:00:13.901Z,2.43
2022-10-02T22:02:43.719Z,1.07
2022-10-02T22:05:45.984Z,0.80
2022-10-02T22:08:12.791Z,1.77
2022-10-02T22:10:47.633Z,0.50
2022-10-02T22:13:37.862Z,1.97
2022-10-02T22:16:13.683Z,1.47
2022-10-02T22:18:55.222Z,0.77
2022-10-02T22:21:33.971Z,0.60
2022-10-02T22:24:34.697Z,0.60
2022-10-02T22:27:16.782Z,0.50
2022-10-02T22:29:53.454Z,1.63
2022-10-02T22:33:09.237Z,0.57
2022-10-02T22:36:13.863Z,0.37
2022-10-02T22:38:51.460Z,0.47
2022-10-02T22:41:41.935Z,0.47
2022-10-02T22:44:39.452Z,1.13
2022-10-02T22:47:20.305Z,0.57
2022-10-02T22:49:52.555Z,0.77
2022-10-02T22:52:27.713Z,0.13
2022-10-02T22:55:12.691Z,1.93
2022-10-02T22:57:52.028Z,0.50
2022-10-02T23:00:26.181Z,0.60
2022-10-02T23:03:19.431Z,0.80
2022-10-02T23:05:50.944Z,0.20
2022-10-02T23:09:01.971Z,1.63
2022-10-02T23:11:46.902Z,0.30
2022-10-02T23:14:13.604Z,0.37
2022-10-02T23:17:05.243Z,1.57
2022-10-02T23:20:14.390Z,0.10
2022-10-02T23:22:51.950Z,0.97
2022-10-02T23:25:42.416Z,0.83
2022-10-02T23:28:18.373Z,1.70
2022-10-02T23:31:06.142Z,0.70
2022-10-02T23:34:05.794Z,0.20
2022-10-02T23:36:56.820Z,0.60
2022-10-02T23:39:39.420Z,0.27
2022-10-02T23:42:11.176Z,0.30
2022-10-02T23:44:46.532Z,0.77
2022-10-02T23:47:28.941Z,0.87
2022-10-02T23:49:57.704Z,0.93
2022-10-02T23:52:55.897Z,1.17
2022-10-02T23:55:53.897Z,1.00
2022-10-02T23:58:48.033Z,0.57
